createdAt,value
2023-02-19T00:01:45.969Z,97885.89
2023-02-19T00:04:14.297Z,97886.99
2023-02-19T00:06:42.003Z,97886.30
2023-02-19T00:09:13.750Z,97884.95
2023-02-19T00:11:41.371Z,97881.78
2023-02-19T00:14:08.698Z,97889.37
2023-02-19T00:16:40.197Z,97897.41
2023-02-19T00:19:09.241Z,97898.11
2023-02-19T00:21:35.707Z,97906.81
2023-02-19T00:24:05.389Z,97907.83
2023-02-19T00:26:32.912Z,97907.02
2023-02-19T00:29:00.717Z,97905.77
2023-02-19T00:31:32.524Z,97904.45
2023-02-19T00:34:02.230Z,97905.30
2023-02-19T00:36:29.564Z,97908.46
2023-02-19T00:38:56.404Z,97909.83
2023-02-19T00:41:24.141Z,97912.08
2023-02-19T00:44:02.148Z,97913.48
2023-02-19T00:46:31.846Z,97912.77
2023-02-19T00:48:59.181Z,97915.02
2023-02-19T00:51:31.643Z,97911.23
2023-02-19T00:53:59.011Z,97904.17
2023-02-19T00:56:25.740Z,97901.84
2023-02-19T00:58:52.795Z,97900.98
2023-02-19T01:01:20.326Z,97904.20
2023-02-19T01:03:48.240Z,97903.27
2023-02-19T01:06:18.247Z,97909.93
2023-02-19T01:08:45.433Z,97905.64
2023-02-19T01:11:13.458Z,97912.72
2023-02-19T01:13:42.086Z,97912.90
2023-02-19T01:16:18.831Z,97915.77
2023-02-19T01:18:46.324Z,97918.45
2023-02-19T01:21:19.565Z,97914.13
2023-02-19T01:23:47.106Z,97916.08
2023-02-19T01:26:19.574Z,97913.02
2023-02-19T01:28:47.166Z,97908.05
2023-02-19T01:31:17.822Z,97903.17
2023-02-19T01:33:46.454Z,97897.71
2023-02-19T01:36:13.609Z,97887.66
2023-02-19T01:38:42.737Z,97882.02
2023-02-19T01:41:12.473Z,97881.09
2023-02-19T01:44:00.270Z,97875.48
2023-02-19T01:46:29.179Z,97875.77
2023-02-19T01:49:10.039Z,97874.27
2023-02-19T01:51:41.378Z,97872.71
2023-02-19T01:54:09.880Z,97866.80
2023-02-19T01:56:41.069Z,97865.15
2023-02-19T01:59:07.793Z,97859.02
2023-02-19T02:01:35.869Z,97854.10
2023-02-19T02:04:03.840Z,97840.81
2023-02-19T02:06:34.398Z,97833.71
2023-02-19T02:09:01.513Z,97835.68
2023-02-19T02:11:29.190Z,97836.66
2023-02-19T02:13:57.142Z,97836.16
2023-02-19T02:16:39.167Z,97834.54
2023-02-19T02:19:40.357Z,97832.14
2023-02-19T02:22:42.493Z,97823.70
2023-02-19T02:25:46.195Z,97823.27
2023-02-19T02:28:51.458Z,97817.19
2023-02-19T02:31:23.119Z,97809.42
2023-02-19T02:34:12.568Z,97818.57
2023-02-19T02:36:45.710Z,97814.16
2023-02-19T02:39:17.308Z,97813.52
2023-02-19T02:41:49.186Z,97812.50
2023-02-19T02:44:16.284Z,97806.34
2023-02-19T02:46:45.383Z,97801.01
2023-02-19T02:49:21.158Z,97798.20
2023-02-19T02:51:52.526Z,97800.46
2023-02-19T02:54:31.613Z,97787.85
2023-02-19T02:56:59.996Z,97781.35
2023-02-19T02:59:31.756Z,97785.38
2023-02-19T03:02:09.456Z,97790.23
2023-02-19T03:04:44.325Z,97791.31
2023-02-19T03:07:12.162Z,97795.27
2023-02-19T03:09:43.019Z,97800.33
2023-02-19T03:12:17.767Z,97797.98
2023-02-19T03:14:48.910Z,97791.70
2023-02-19T03:17:33.444Z,97796.81
2023-02-19T03:20:03.121Z,97797.03
2023-02-19T03:22:33.908Z,97800.62
2023-02-19T03:25:14.255Z,97804.72
2023-02-19T03:27:44.681Z,97801.80
2023-02-19T03:30:25.715Z,97807.54
2023-02-19T03:32:58.105Z,97801.88
2023-02-19T03:35:30.152Z,97800.55
2023-02-19T03:38:19.841Z,97800.44
2023-02-19T03:41:25.323Z,97801.90
2023-02-19T03:44:14.665Z,97804.80
2023-02-19T03:46:59.946Z,97806.39
2023-02-19T03:49:44.405Z,97806.89
2023-02-19T03:52:38.335Z,97803.44
2023-02-19T03:55:18.081Z,97798.15
2023-02-19T03:58:05.146Z,97798.93
2023-02-19T04:00:41.384Z,97801.02
2023-02-19T04:03:33.454Z,97796.89
2023-02-19T04:06:03.717Z,97795.69
2023-02-19T04:08:34.227Z,97798.30
2023-02-19T04:11:00.796Z,97799.18
2023-02-19T04:13:32.785Z,97796.08
2023-02-19T04:16:06.795Z,97795.23
2023-02-19T04:18:38.880Z,97800.89
2023-02-19T04:21:07.620Z,97801.53
2023-02-19T04:23:39.577Z,97804.98
2023-02-19T04:26:07.048Z,97802.69
2023-02-19T04:28:35.117Z,97807.33
2023-02-19T04:31:02.408Z,97807.35
2023-02-19T04:33:29.191Z,97809.34
2023-02-19T04:35:55.763Z,97806.34
2023-02-19T04:38:22.623Z,97801.80
2023-02-19T04:40:49.109Z,97793.48
2023-02-19T04:43:15.522Z,97788.80
2023-02-19T04:45:42.018Z,97787.64
2023-02-19T04:48:09.069Z,97787.00
2023-02-19T04:50:39.160Z,97782.09
2023-02-19T04:53:06.650Z,97776.43
2023-02-19T04:55:37.174Z,97771.95
2023-02-19T04:58:03.642Z,97771.45
2023-02-19T05:00:30.791Z,97773.69
2023-02-19T05:02:57.338Z,97769.76
2023-02-19T05:05:23.941Z,97763.91
2023-02-19T05:07:50.459Z,97756.15
2023-02-19T05:10:17.274Z,97753.09
2023-02-19T05:12:43.889Z,97750.16
2023-02-19T05:15:10.437Z,97751.85
2023-02-19T05:17:36.997Z,97749.27
2023-02-19T05:20:03.844Z,97744.95
2023-02-19T05:22:30.900Z,97745.83
2023-02-19T05:24:57.438Z,97736.52
2023-02-19T05:27:25.738Z,97740.06
2023-02-19T05:29:52.279Z,97735.49
2023-02-19T05:32:18.845Z,97734.60
2023-02-19T05:34:45.271Z,97733.23
2023-02-19T05:37:11.895Z,97731.02
2023-02-19T05:39:38.635Z,97733.69
2023-02-19T05:42:05.274Z,97736.77
2023-02-19T05:44:31.769Z,97734.88
2023-02-19T05:46:58.252Z,97730.34
2023-02-19T05:49:24.804Z,97735.42
2023-02-19T05:51:51.652Z,97736.65
2023-02-19T05:54:18.195Z,97738.48
2023-02-19T05:56:44.742Z,97738.52
2023-02-19T05:59:17.620Z,97731.87
2023-02-19T06:01:44.469Z,97722.61
2023-02-19T06:04:11.884Z,97722.47
2023-02-19T06:06:39.171Z,97718.84
2023-02-19T06:09:07.098Z,97712.81
2023-02-19T06:11:34.611Z,97710.55
2023-02-19T06:14:01.372Z,97714.70
2023-02-19T06:16:28.617Z,97707.98
2023-02-19T06:18:55.338Z,97713.83
2023-02-19T06:21:22.161Z,97721.58
2023-02-19T06:23:48.762Z,97724.55
2023-02-19T06:26:18.024Z,97726.98
2023-02-19T06:28:46.143Z,97729.10
2023-02-19T06:31:13.589Z,97728.29
2023-02-19T06:33:41.699Z,97723.83
2023-02-19T06:36:12.436Z,97721.94
2023-02-19T06:38:38.957Z,97722.19
2023-02-19T06:41:07.028Z,97720.09
2023-02-19T06:43:34.734Z,97715.89
2023-02-19T06:46:03.828Z,97713.77
2023-02-19T06:48:31.903Z,97719.90
2023-02-19T06:50:58.606Z,97716.04
2023-02-19T06:53:25.401Z,97713.21
2023-02-19T06:56:00.260Z,97711.89
2023-02-19T06:58:27.718Z,97718.65
2023-02-19T07:00:54.820Z,97709.06
2023-02-19T07:03:21.778Z,97702.34
2023-02-19T07:05:48.927Z,97699.84
2023-02-19T07:08:15.712Z,97693.56
2023-02-19T07:10:42.236Z,97684.49
2023-02-19T07:13:08.973Z,97685.39
2023-02-19T07:15:35.498Z,97673.33
2023-02-19T07:18:03.838Z,97675.83
2023-02-19T07:20:30.488Z,97684.23
2023-02-19T07:22:57.705Z,97684.34
2023-02-19T07:25:24.159Z,97687.21
2023-02-19T07:27:50.619Z,97681.98
2023-02-19T07:30:17.263Z,97680.87
2023-02-19T07:32:43.890Z,97681.14
2023-02-19T07:35:10.414Z,97681.26
2023-02-19T07:37:36.892Z,97672.11
2023-02-19T07:40:04.226Z,97668.37
2023-02-19T07:42:30.764Z,97663.19
2023-02-19T07:45:00.248Z,97667.40
2023-02-19T07:47:27.229Z,97667.31
2023-02-19T07:49:53.764Z,97661.31
2023-02-19T07:52:20.269Z,97654.02
2023-02-19T07:54:46.856Z,97651.56
2023-02-19T07:57:13.492Z,97649.52
2023-02-19T07:59:40.466Z,97651.55
2023-02-19T08:02:18.361Z,97647.77
2023-02-19T08:04:47.334Z,97647.58
2023-02-19T08:07:13.779Z,97651.46
2023-02-19T08:09:40.332Z,97647.73
2023-02-19T08:12:06.978Z,97648.60
2023-02-19T08:14:33.585Z,97643.48
2023-02-19T08:17:00.314Z,97644.88
2023-02-19T08:19:26.851Z,97646.05
2023-02-19T08:21:53.333Z,97643.28
2023-02-19T08:24:19.843Z,97641.50
2023-02-19T08:26:46.331Z,97645.10
2023-02-19T08:29:12.930Z,97642.29
2023-02-19T08:31:39.611Z,97647.74
2023-02-19T08:34:06.321Z,97644.56
2023-02-19T08:36:32.905Z,97647.02
2023-02-19T08:38:59.429Z,97644.79
2023-02-19T08:41:25.964Z,97648.79
2023-02-19T08:43:52.407Z,97651.18
2023-02-19T08:46:19.008Z,97655.14
2023-02-19T08:48:45.801Z,97667.17
2023-02-19T08:51:12.658Z,97665.79
2023-02-19T08:53:40.860Z,97662.90
2023-02-19T08:56:13.115Z,97664.06
2023-02-19T08:58:40.591Z,97662.14
2023-02-19T09:01:12.588Z,97660.00
2023-02-19T09:03:39.905Z,97656.14
2023-02-19T09:06:06.802Z,97649.32
2023-02-19T09:08:33.290Z,97649.36
2023-02-19T09:11:02.500Z,97643.83
2023-02-19T09:13:29.210Z,97642.68
2023-02-19T09:15:56.385Z,97642.84
2023-02-19T09:18:24.456Z,97639.65
2023-02-19T09:20:50.949Z,97638.77
2023-02-19T09:23:17.452Z,97636.08
2023-02-19T09:25:44.101Z,97634.91
2023-02-19T09:28:10.615Z,97636.10
2023-02-19T09:30:37.313Z,97640.25
2023-02-19T09:33:05.541Z,97640.62
2023-02-19T09:35:32.096Z,97637.52
2023-02-19T09:38:00.884Z,97642.48
2023-02-19T09:40:27.742Z,97638.45
2023-02-19T09:42:54.295Z,97639.80
2023-02-19T09:45:24.918Z,97637.44
2023-02-19T09:47:57.445Z,97638.86
2023-02-19T09:50:36.319Z,97637.38
2023-02-19T09:53:11.721Z,97640.48
2023-02-19T09:55:43.501Z,97636.52
2023-02-19T09:58:27.423Z,97635.90
2023-02-19T10:00:56.618Z,97634.67
2023-02-19T10:03:27.358Z,97635.52
2023-02-19T10:05:54.368Z,97634.56
2023-02-19T10:08:21.321Z,97636.70
2023-02-19T10:10:48.056Z,97633.34
2023-02-19T10:13:25.782Z,97633.15
2023-02-19T10:15:56.657Z,97631.92
2023-02-19T10:18:26.746Z,97635.23
2023-02-19T10:20:53.587Z,97636.79
2023-02-19T10:23:20.608Z,97638.30
2023-02-19T10:25:57.947Z,97641.27
2023-02-19T10:28:31.194Z,97645.74
2023-02-19T10:31:00.399Z,97649.27
2023-02-19T10:33:27.301Z,97649.31
2023-02-19T10:35:59.390Z,97653.56
2023-02-19T10:38:35.330Z,97656.81
2023-02-19T10:41:14.690Z,97654.56
2023-02-19T10:43:51.050Z,97655.46
2023-02-19T10:46:33.331Z,97654.73
2023-02-19T10:49:03.921Z,97656.96
2023-02-19T10:51:37.214Z,97659.76
2023-02-19T10:54:07.526Z,97654.83
2023-02-19T10:56:34.145Z,97658.40
2023-02-19T10:59:28.267Z,97657.59
2023-02-19T11:02:02.622Z,97658.81
2023-02-19T11:04:32.214Z,97660.53
2023-02-19T11:06:58.686Z,97661.75
2023-02-19T11:09:39.313Z,97660.57
2023-02-19T11:12:09.220Z,97663.48
2023-02-19T11:14:36.577Z,97663.81
2023-02-19T11:17:05.482Z,97667.14
2023-02-19T11:19:44.405Z,97665.13
2023-02-19T11:22:26.527Z,97665.31
2023-02-19T11:24:57.304Z,97665.32
2023-02-19T11:27:25.337Z,97669.92
2023-02-19T11:29:51.980Z,97673.84
2023-02-19T11:32:27.953Z,97676.21
2023-02-19T11:35:14.510Z,97681.84
2023-02-19T11:38:01.783Z,97688.85
2023-02-19T11:40:59.253Z,97687.98
2023-02-19T11:43:41.061Z,97685.62
2023-02-19T11:46:51.105Z,97699.77
2023-02-19T11:49:52.992Z,97705.01
2023-02-19T11:52:35.505Z,97703.30
2023-02-19T11:55:07.992Z,97704.89
2023-02-19T11:57:47.980Z,97706.41
2023-02-19T12:00:32.610Z,97713.48
2023-02-19T12:03:20.957Z,97707.01
2023-02-19T12:06:09.051Z,97713.80
2023-02-19T12:08:41.769Z,97722.83
2023-02-19T12:11:20.432Z,97715.80
2023-02-19T12:14:00.422Z,97724.21
2023-02-19T12:16:38.505Z,97722.52
2023-02-19T12:19:33.865Z,97728.80
2023-02-19T12:22:16.339Z,97735.41
2023-02-19T12:24:58.416Z,97746.35
2023-02-19T12:27:41.654Z,97758.19
2023-02-19T12:30:35.982Z,97760.34
2023-02-19T12:33:11.673Z,97780.80
2023-02-19T12:35:47.151Z,97775.26
2023-02-19T12:38:43.263Z,97787.81
2023-02-19T12:41:12.699Z,97797.00
2023-02-19T12:43:46.189Z,97800.98
2023-02-19T12:46:19.023Z,97805.95
2023-02-19T12:49:12.497Z,97809.59
2023-02-19T12:52:13.066Z,97814.68
2023-02-19T12:54:43.475Z,97819.17
2023-02-19T12:57:18.377Z,97821.98
2023-02-19T13:00:00.373Z,97826.23
2023-02-19T13:02:54.451Z,97827.40
2023-02-19T13:05:21.012Z,97830.52
2023-02-19T13:08:04.050Z,97829.77
2023-02-19T13:10:43.173Z,97838.06
2023-02-19T13:13:19.048Z,97838.91
2023-02-19T13:15:50.280Z,97844.48
2023-02-19T13:18:24.116Z,97843.20
2023-02-19T13:20:52.258Z,97840.36
2023-02-19T13:23:21.871Z,97847.70
2023-02-19T13:26:15.512Z,97851.13
2023-02-19T13:28:58.682Z,97854.80
2023-02-19T13:32:07.187Z,97856.34
2023-02-19T13:35:01.927Z,97860.59
2023-02-19T13:37:33.247Z,97867.48
2023-02-19T13:40:04.905Z,97872.37
2023-02-19T13:42:34.021Z,97875.14
2023-02-19T13:45:03.430Z,97875.58
2023-02-19T13:47:56.171Z,97880.63
2023-02-19T13:50:28.580Z,97879.19
2023-02-19T13:52:56.956Z,97883.90
2023-02-19T13:55:41.724Z,97882.94
2023-02-19T13:58:33.533Z,97892.86
2023-02-19T14:01:11.388Z,97898.73
2023-02-19T14:04:06.893Z,97903.08
2023-02-19T14:07:05.300Z,97904.37
2023-02-19T14:09:34.899Z,97901.95
2023-02-19T14:12:03.374Z,97900.11
2023-02-19T14:14:38.928Z,97902.52
2023-02-19T14:17:45.743Z,97909.38
2023-02-19T14:20:15.189Z,97919.36
2023-02-19T14:22:44.844Z,97914.92
2023-02-19T14:25:35.539Z,97920.77
2023-02-19T14:28:11.194Z,97914.91
2023-02-19T14:31:11.364Z,97914.34
2023-02-19T14:33:43.996Z,97928.40
2023-02-19T14:36:35.242Z,97932.34
2023-02-19T14:39:13.861Z,97929.19
2023-02-19T14:41:45.165Z,97937.69
2023-02-19T14:44:18.940Z,97944.88
2023-02-19T14:47:00.005Z,97946.29
2023-02-19T14:49:39.343Z,97954.73
2023-02-19T14:52:14.792Z,97955.31
2023-02-19T14:54:58.537Z,97957.36
2023-02-19T14:57:35.851Z,97957.73
2023-02-19T15:00:21.834Z,97963.86
2023-02-19T15:02:51.235Z,97979.30
2023-02-19T15:05:23.627Z,97981.07
2023-02-19T15:07:51.509Z,97985.55
2023-02-19T15:10:18.445Z,97991.27
2023-02-19T15:12:51.126Z,97993.30
2023-02-19T15:15:31.183Z,97995.08
2023-02-19T15:18:00.856Z,97996.24
2023-02-19T15:20:30.953Z,98004.52
2023-02-19T15:22:59.506Z,98013.23
2023-02-19T15:25:37.964Z,98024.30
2023-02-19T15:28:32.138Z,98024.98
2023-02-19T15:30:58.593Z,98038.24
2023-02-19T15:33:27.653Z,98043.53
2023-02-19T15:35:58.199Z,98052.19
2023-02-19T15:38:25.447Z,98054.20
2023-02-19T15:40:53.232Z,98057.70
2023-02-19T15:43:26.123Z,98062.42
2023-02-19T15:45:58.305Z,98068.16
2023-02-19T15:48:37.075Z,98074.39
2023-02-19T15:51:11.141Z,98076.14
2023-02-19T15:53:46.286Z,98079.16
2023-02-19T15:56:22.643Z,98083.05
2023-02-19T15:58:59.268Z,98087.34
2023-02-19T16:01:28.550Z,98091.59
2023-02-19T16:03:56.102Z,98095.23
2023-02-19T16:06:25.230Z,98104.13
2023-02-19T16:08:55.142Z,98103.69
2023-02-19T16:11:29.447Z,98107.70
2023-02-19T16:14:27.115Z,98119.94
2023-02-19T16:16:58.955Z,98126.73
2023-02-19T16:19:31.985Z,98126.91
2023-02-19T16:21:59.642Z,98133.06
2023-02-19T16:24:34.170Z,98136.55
2023-02-19T16:27:01.358Z,98140.95
2023-02-19T16:29:31.592Z,98154.72
2023-02-19T16:32:01.559Z,98157.88
2023-02-19T16:34:32.421Z,98167.28
2023-02-19T16:36:59.165Z,98173.64
2023-02-19T16:39:25.721Z,98176.41
2023-02-19T16:42:11.791Z,98177.66
2023-02-19T16:44:38.554Z,98186.42
2023-02-19T16:47:07.778Z,98197.39
2023-02-19T16:49:34.401Z,98201.93
2023-02-19T16:52:04.542Z,98207.52
2023-02-19T16:54:31.628Z,98210.61
2023-02-19T16:56:58.229Z,98218.29
2023-02-19T16:59:24.760Z,98223.10
2023-02-19T17:01:51.508Z,98218.11
2023-02-19T17:04:17.936Z,98220.35
2023-02-19T17:06:44.898Z,98221.60
2023-02-19T17:09:11.646Z,98228.83
2023-02-19T17:11:38.293Z,98220.83
2023-02-19T17:14:04.729Z,98229.14
2023-02-19T17:16:33.388Z,98231.07
2023-02-19T17:18:59.882Z,98244.68
2023-02-19T17:21:28.876Z,98251.40
2023-02-19T17:23:56.515Z,98253.78
2023-02-19T17:26:28.917Z,98261.36
2023-02-19T17:28:59.984Z,98261.60
2023-02-19T17:31:26.960Z,98263.48
2023-02-19T17:33:54.144Z,98264.91
2023-02-19T17:36:24.293Z,98274.81
2023-02-19T17:38:50.918Z,98279.04
2023-02-19T17:41:17.664Z,98281.88
2023-02-19T17:43:44.398Z,98284.22
2023-02-19T17:46:15.524Z,98287.26
2023-02-19T17:48:42.093Z,98297.21
2023-02-19T17:51:08.977Z,98299.27
2023-02-19T17:53:36.209Z,98311.73
2023-02-19T17:56:02.789Z,98312.26
2023-02-19T17:58:29.481Z,98317.01
2023-02-19T18:00:55.979Z,98323.90
2023-02-19T18:03:22.548Z,98328.73
2023-02-19T18:05:48.976Z,98330.96
2023-02-19T18:08:16.049Z,98337.68
2023-02-19T18:10:42.809Z,98348.09
2023-02-19T18:13:09.283Z,98352.17
2023-02-19T18:15:36.300Z,98359.50
2023-02-19T18:18:03.135Z,98362.75
2023-02-19T18:20:29.996Z,98375.23
2023-02-19T18:22:57.341Z,98377.13
2023-02-19T18:25:24.196Z,98382.11
2023-02-19T18:27:50.963Z,98382.30
2023-02-19T18:30:20.157Z,98374.13
2023-02-19T18:32:47.505Z,98387.61
2023-02-19T18:35:15.175Z,98384.34
2023-02-19T18:37:42.122Z,98398.45
2023-02-19T18:40:09.323Z,98401.41
2023-02-19T18:42:35.920Z,98406.77
2023-02-19T18:45:02.782Z,98414.81
2023-02-19T18:47:29.417Z,98417.42
2023-02-19T18:49:57.708Z,98422.42
2023-02-19T18:52:26.019Z,98429.01
2023-02-19T18:54:54.004Z,98436.91
2023-02-19T18:57:22.954Z,98441.55
2023-02-19T18:59:49.825Z,98446.42
2023-02-19T19:02:21.154Z,98455.86
2023-02-19T19:04:52.721Z,98456.41
2023-02-19T19:07:20.639Z,98461.02
2023-02-19T19:09:47.604Z,98461.86
2023-02-19T19:12:15.331Z,98460.67
2023-02-19T19:14:42.464Z,98461.20
2023-02-19T19:17:09.012Z,98472.00
2023-02-19T19:19:35.732Z,98472.68
2023-02-19T19:22:02.270Z,98472.90
2023-02-19T19:24:28.825Z,98469.66
2023-02-19T19:26:55.449Z,98467.10
2023-02-19T19:29:22.529Z,98470.88
2023-02-19T19:31:49.751Z,98467.95
2023-02-19T19:34:16.485Z,98467.13
2023-02-19T19:36:43.681Z,98472.75
2023-02-19T19:39:10.526Z,98474.17
2023-02-19T19:41:37.029Z,98475.76
2023-02-19T19:44:08.376Z,98479.88
2023-02-19T19:46:35.964Z,98474.73
2023-02-19T19:49:02.665Z,98474.88
2023-02-19T19:51:33.848Z,98479.01
2023-02-19T19:54:00.823Z,98485.69
2023-02-19T19:56:27.257Z,98489.29
2023-02-19T19:58:54.107Z,98492.20
2023-02-19T20:01:21.611Z,98491.20
2023-02-19T20:03:48.413Z,98493.65
2023-02-19T20:06:15.268Z,98498.49
2023-02-19T20:08:41.766Z,98497.19
2023-02-19T20:11:08.812Z,98500.48
2023-02-19T20:13:35.501Z,98504.77
2023-02-19T20:16:02.016Z,98509.23
2023-02-19T20:18:28.680Z,98512.30
2023-02-19T20:20:55.378Z,98511.29
2023-02-19T20:23:22.174Z,98500.67
2023-02-19T20:25:49.228Z,98509.74
2023-02-19T20:28:18.785Z,98507.88
2023-02-19T20:30:45.305Z,98511.34
2023-02-19T20:33:12.366Z,98511.73
2023-02-19T20:35:38.958Z,98516.94
2023-02-19T20:38:05.387Z,98520.98
2023-02-19T20:40:32.143Z,98524.31
2023-02-19T20:42:58.901Z,98527.48
2023-02-19T20:45:25.361Z,98529.67
2023-02-19T20:47:52.003Z,98534.83
2023-02-19T20:50:19.132Z,98532.60
2023-02-19T20:52:46.512Z,98538.55
2023-02-19T20:55:13.028Z,98539.53
2023-02-19T20:57:39.803Z,98544.35
2023-02-19T21:00:08.384Z,98542.14
2023-02-19T21:02:35.173Z,98538.95
2023-02-19T21:05:01.824Z,98532.55
2023-02-19T21:07:28.618Z,98535.34
2023-02-19T21:09:55.166Z,98540.49
2023-02-19T21:12:22.408Z,98542.11
2023-02-19T21:14:49.047Z,98551.38
2023-02-19T21:17:15.721Z,98562.70
2023-02-19T21:19:42.186Z,98568.88
2023-02-19T21:22:08.769Z,98560.30
2023-02-19T21:24:35.186Z,98564.58
2023-02-19T21:27:01.708Z,98568.58
2023-02-19T21:29:28.501Z,98570.34
2023-02-19T21:31:57.133Z,98571.88
2023-02-19T21:34:29.081Z,98582.98
2023-02-19T21:36:56.613Z,98587.45
2023-02-19T21:39:26.706Z,98595.72
2023-02-19T21:41:53.694Z,98604.15
2023-02-19T21:44:20.668Z,98600.75
2023-02-19T21:46:47.899Z,98606.88
2023-02-19T21:49:14.571Z,98606.02
2023-02-19T21:51:43.241Z,98612.17
2023-02-19T21:54:15.980Z,98612.02
2023-02-19T21:56:42.801Z,98608.96
2023-02-19T21:59:09.335Z,98613.33
2023-02-19T22:01:37.745Z,98621.71
2023-02-19T22:04:05.969Z,98625.36
2023-02-19T22:06:33.000Z,98626.64
2023-02-19T22:09:00.021Z,98626.55
2023-02-19T22:11:26.826Z,98628.52
2023-02-19T22:13:53.986Z,98629.97
2023-02-19T22:16:21.187Z,98627.46
2023-02-19T22:18:53.731Z,98623.27
2023-02-19T22:21:21.652Z,98622.30
2023-02-19T22:23:50.198Z,98626.63
2023-02-19T22:26:29.225Z,98627.90
2023-02-19T22:28:56.274Z,98636.38
2023-02-19T22:31:24.904Z,98632.52
2023-02-19T22:33:52.416Z,98638.80
2023-02-19T22:36:24.384Z,98642.42
2023-02-19T22:38:50.912Z,98641.59
2023-02-19T22:41:19.098Z,98640.23
2023-02-19T22:43:46.162Z,98642.17
2023-02-19T22:46:24.927Z,98651.09
2023-02-19T22:48:51.743Z,98654.73
2023-02-19T22:51:21.290Z,98660.08
2023-02-19T22:53:50.160Z,98660.80
2023-02-19T22:56:18.315Z,98661.30
2023-02-19T22:58:45.468Z,98671.21
2023-02-19T23:01:16.169Z,98679.59
2023-02-19T23:03:49.871Z,98687.79
2023-02-19T23:06:27.957Z,98696.11
2023-02-19T23:08:56.782Z,98699.54
2023-02-19T23:11:28.993Z,98702.42
2023-02-19T23:13:57.062Z,98706.56
2023-02-19T23:16:23.816Z,98703.15
2023-02-19T23:18:51.104Z,98707.23
2023-02-19T23:21:19.201Z,98706.02
2023-02-19T23:23:46.630Z,98712.68
2023-02-19T23:26:14.793Z,98712.18
2023-02-19T23:28:45.419Z,98710.77
2023-02-19T23:31:13.323Z,98711.41
2023-02-19T23:33:40.421Z,98711.05
2023-02-19T23:36:08.085Z,98715.68
2023-02-19T23:38:35.284Z,98718.62
2023-02-19T23:41:02.336Z,98718.97
2023-02-19T23:43:29.486Z,98720.52
2023-02-19T23:45:56.070Z,98724.34
2023-02-19T23:48:22.773Z,98725.92
2023-02-19T23:50:49.309Z,98728.16
2023-02-19T23:53:15.877Z,98728.83
2023-02-19T23:55:42.605Z,98727.80
2023-02-19T23:58:09.147Z,98725.58
